Time;durP1;ratioP1;P1;durP2;ratioP2;P2;SDS_P1;SDS_P2;PMS_P1;PMS_P2;Temp;Humidity;BMP_temperature;BMP_pressure;BME280_temperature;BME280_humidity;BME280_pressure;Samples;Min_cycle;Max_cycle;Signal;HPM_P1;HPM_P2
2021/12/18 00:00:36;;;;;;;20.02;13.30;;;;;;;-145.45;100.00;62759.84;5198209;28;20110;-86
2021/12/18 00:03:08;;;;;;;19.75;13.13;;;;;;;-145.45;100.00;62759.84;5204453;28;20114;-86
2021/12/18 00:05:40;;;;;;;22.25;13.02;;;;;;;-145.45;100.00;62759.84;5221923;28;20074;-86
2021/12/18 00:08:12;;;;;;;18.08;12.52;;;;;;;-145.45;100.00;62759.84;5221032;28;20376;-86
2021/12/18 00:10:45;;;;;;;18.75;12.75;;;;;;;-145.45;100.00;62759.84;5223001;28;20045;-86
2021/12/18 00:13:16;;;;;;;20.02;12.85;;;;;;;-145.45;100.00;62759.84;5233091;28;20058;-86
2021/12/18 00:15:48;;;;;;;19.85;13.05;;;;;;;-145.45;100.00;62759.84;5223354;28;20475;-86
2021/12/18 00:18:19;;;;;;;19.20;13.45;;;;;;;-145.45;100.00;62759.84;5225600;28;20026;-86
2021/12/18 00:20:51;;;;;;;19.27;12.25;;;;;;;-145.45;100.00;62759.84;5221983;28;20225;-85
2021/12/18 00:23:22;;;;;;;21.20;14.00;;;;;;;-145.45;100.00;62759.84;5231623;28;40620;-85
2021/12/18 00:25:53;;;;;;;19.95;12.75;;;;;;;-145.45;100.00;62759.84;5227240;28;20022;-86
2021/12/18 00:28:25;;;;;;;19.77;12.50;;;;;;;-145.45;100.00;62759.84;5224748;28;20383;-86
2021/12/18 00:30:56;;;;;;;21.15;12.68;;;;;;;-145.45;100.00;62759.84;5236790;28;20046;-86
2021/12/18 00:33:27;;;;;;;20.42;12.48;;;;;;;-145.45;100.00;62759.84;5225916;28;20151;-86
2021/12/18 00:35:58;;;;;;;19.42;11.82;;;;;;;-145.45;100.00;62759.84;5231115;28;20026;-86
2021/12/18 00:38:30;;;;;;;17.65;11.38;;;;;;;-145.45;100.00;62759.84;5224587;28;20453;-85
2021/12/18 00:41:27;;;;;;;18.17;11.32;;;;;;;-145.45;100.00;62759.84;5235857;28;20086;-85
2021/12/18 00:44:03;;;;;;;21.07;11.80;;;;;;;-145.45;100.00;62759.84;5237682;28;20070;-87
2021/12/18 00:46:43;;;;;;;21.80;11.60;;;;;;;-145.45;100.00;62759.84;5231339;28;20309;-86
2021/12/18 00:49:17;;;;;;;16.13;9.88;;;;;;;-145.45;100.00;62759.84;5227778;28;20089;-86
2021/12/18 00:51:48;;;;;;;17.73;10.60;;;;;;;-145.45;100.00;62759.84;5228617;28;20451;-86
2021/12/18 00:54:19;;;;;;;15.73;9.93;;;;;;;-145.45;100.00;62759.84;5226515;28;20035;-86
2021/12/18 00:56:51;;;;;;;14.13;9.10;;;;;;;-145.45;100.00;62759.84;5203585;28;20438;-86
2021/12/18 00:59:22;;;;;;;16.58;10.02;;;;;;;-145.45;100.00;62759.84;5203489;28;20360;-85
2021/12/18 01:01:53;;;;;;;14.88;9.68;;;;;;;-145.45;100.00;62759.84;5220764;28;20033;-86
2021/12/18 01:04:26;;;;;;;15.30;9.68;;;;;;;-145.45;100.00;62759.84;5218175;28;20097;-86
2021/12/18 01:06:57;;;;;;;14.90;8.65;;;;;;;-145.45;100.00;62759.84;5226911;28;20080;-86
2021/12/18 01:09:54;;;;;;;14.75;8.27;;;;;;;-145.45;100.00;62759.84;5223782;28;20042;-86
2021/12/18 01:12:32;;;;;;;12.45;8.07;;;;;;;-145.45;100.00;62759.84;5234979;28;20352;-86
2021/12/18 01:15:18;;;;;;;15.25;9.13;;;;;;;-145.45;100.00;62759.84;5230871;28;20150;-86
2021/12/18 01:23:30;;;;;;;12.90;7.57;;;;;;;-145.45;100.00;62759.84;5229292;28;20030;-86
2021/12/18 01:26:03;;;;;;;12.65;7.80;;;;;;;-145.45;100.00;62759.84;5225051;28;20332;-85
2021/12/18 01:28:35;;;;;;;12.48;7.80;;;;;;;-145.45;100.00;62759.84;5236823;28;20036;-86
2021/12/18 01:31:09;;;;;;;13.57;8.02;;;;;;;-145.45;100.00;62759.84;5225369;28;20424;-85
2021/12/18 01:33:40;;;;;;;12.45;7.57;;;;;;;-145.45;100.00;62759.84;5231061;28;20467;-86
2021/12/18 01:36:11;;;;;;;10.32;6.53;;;;;;;-145.45;100.00;62759.84;5232182;28;20030;-86
2021/12/18 01:38:43;;;;;;;13.40;7.28;;;;;;;-145.45;100.00;62759.84;5228336;28;20037;-85
2021/12/18 01:41:16;;;;;;;13.35;8.38;;;;;;;-145.45;100.00;62759.84;5227387;28;20026;-86
2021/12/18 01:46:49;;;;;;;13.93;8.13;;;;;;;-145.45;100.00;62759.84;5223390;28;20483;-85
2021/12/18 01:52:20;;;;;;;11.82;6.55;;;;;;;-145.45;100.00;62759.84;5233456;28;20382;-85
2021/12/18 01:54:51;;;;;;;12.52;7.60;;;;;;;-145.45;100.00;62759.84;5217032;28;20502;-86
2021/12/18 01:57:22;;;;;;;11.10;7.50;;;;;;;-145.45;100.00;62759.84;5231776;28;20061;-86
2021/12/18 01:59:54;;;;;;;12.30;7.50;;;;;;;-145.45;100.00;62759.84;5229946;28;20415;-86
2021/12/18 02:02:26;;;;;;;13.63;7.25;;;;;;;-145.45;100.00;62759.84;5220553;28;20037;-85
2021/12/18 02:04:57;;;;;;;11.75;7.70;;;;;;;-145.45;100.00;62759.84;5220189;28;20042;-86
2021/12/18 02:07:29;;;;;;;12.93;7.97;;;;;;;-145.45;100.00;62759.84;5205751;28;20034;-87
2021/12/18 02:10:07;;;;;;;11.57;7.30;;;;;;;-145.45;100.00;62759.84;5234374;28;20026;-86
2021/12/18 02:12:48;;;;;;;12.48;7.55;;;;;;;-145.45;100.00;62759.84;5220484;28;20026;-86
2021/12/18 02:21:14;;;;;;;17.25;9.32;;;;;;;-145.45;100.00;62759.84;5225293;28;20475;-86
2021/12/18 02:23:46;;;;;;;16.77;9.18;;;;;;;-145.45;100.00;62759.84;5225175;28;20064;-85
2021/12/18 02:26:18;;;;;;;16.60;10.27;;;;;;;-145.45;100.00;62759.84;5220070;28;20058;-85
2021/12/18 02:28:51;;;;;;;15.75;9.57;;;;;;;-145.45;100.00;62759.84;5230976;28;20034;-86
2021/12/18 02:31:23;;;;;;;17.25;9.73;;;;;;;-145.45;100.00;62759.84;5210966;28;20089;-85
2021/12/18 02:33:54;;;;;;;17.88;11.38;;;;;;;-145.45;100.00;62759.84;5206751;28;20018;-86
2021/12/18 02:36:26;;;;;;;14.48;9.15;;;;;;;-145.45;100.00;62759.84;5210065;28;20029;-86
2021/12/18 02:44:10;;;;;;;16.65;9.75;;;;;;;-145.45;100.00;62759.84;5232059;28;20033;-85
2021/12/18 02:46:41;;;;;;;15.38;8.82;;;;;;;-145.45;100.00;62759.84;5216366;28;20058;-86
2021/12/18 02:49:15;;;;;;;16.67;9.50;;;;;;;-145.45;100.00;62759.84;5202772;28;20117;-86
2021/12/18 02:51:47;;;;;;;17.08;9.93;;;;;;;-145.45;100.00;62759.84;5234294;28;20034;-86
2021/12/18 02:54:18;;;;;;;15.82;9.43;;;;;;;-145.45;100.00;62759.84;5232993;28;20512;-86
2021/12/18 02:56:49;;;;;;;19.17;10.43;;;;;;;-145.45;100.00;62759.84;5238789;28;20455;-85
2021/12/18 02:59:21;;;;;;;19.08;10.32;;;;;;;-145.45;100.00;62759.84;5244160;28;20043;-86
2021/12/18 03:01:53;;;;;;;18.73;10.60;;;;;;;-145.45;100.00;62759.84;5237206;28;20026;-85
2021/12/18 03:04:30;;;;;;;18.67;10.90;;;;;;;-145.45;100.00;62759.84;5220925;28;20054;-85
2021/12/18 03:07:04;;;;;;;17.98;10.02;;;;;;;-145.45;100.00;62759.84;5233791;28;20517;-85
2021/12/18 03:26:06;;;;;;;18.73;10.80;;;;;;;-145.45;100.00;62759.84;5228473;28;20050;-86
2021/12/18 03:28:37;;;;;;;15.85;8.27;;;;;;;-145.45;100.00;62759.84;5233556;28;20038;-85
2021/12/18 03:31:09;;;;;;;15.73;9.75;;;;;;;-145.45;100.00;62759.84;5231608;28;20058;-86
2021/12/18 03:33:40;;;;;;;17.40;10.48;;;;;;;-145.45;100.00;62759.84;5233980;28;20022;-86
2021/12/18 03:36:11;;;;;;;19.13;10.68;;;;;;;-145.45;100.00;62759.84;5216430;28;20030;-85
2021/12/18 03:38:42;;;;;;;16.73;9.70;;;;;;;-145.45;100.00;62759.84;5233148;28;41236;-86
2021/12/18 03:41:14;;;;;;;14.82;8.80;;;;;;;-145.45;100.00;62759.84;5228034;28;20036;-86
2021/12/18 03:43:45;;;;;;;17.52;9.68;;;;;;;-145.45;100.00;62759.84;5223389;28;20040;-86
2021/12/18 03:46:17;;;;;;;15.50;8.88;;;;;;;-145.45;100.00;62759.84;5212917;28;20033;-85
2021/12/18 03:48:48;;;;;;;20.38;11.30;;;;;;;-145.45;100.00;62759.84;5233020;28;20473;-85
2021/12/18 03:51:19;;;;;;;17.83;10.00;;;;;;;-145.45;100.00;62759.84;5232217;28;20030;-85
2021/12/18 03:53:51;;;;;;;18.60;11.35;;;;;;;-145.45;100.00;62759.84;5235773;28;20029;-86
2021/12/18 03:56:22;;;;;;;17.95;10.80;;;;;;;-145.45;100.00;62759.84;5230980;28;20034;-86
2021/12/18 03:58:53;;;;;;;19.08;11.05;;;;;;;-145.45;100.00;62759.84;5234440;28;20467;-85
2021/12/18 04:01:25;;;;;;;17.98;10.32;;;;;;;-145.45;100.00;62759.84;5230900;28;20037;-85
2021/12/18 04:03:57;;;;;;;19.80;11.07;;;;;;;-145.45;100.00;62759.84;5225891;28;20101;-86
2021/12/18 04:06:29;;;;;;;19.35;10.63;;;;;;;-145.45;100.00;62759.84;5199925;28;20066;-86
2021/12/18 04:09:00;;;;;;;17.90;10.63;;;;;;;-145.45;100.00;62759.84;5201220;28;20026;-86
2021/12/18 04:11:32;;;;;;;17.00;10.63;;;;;;;-145.45;100.00;62759.84;5201113;28;20043;-86
2021/12/18 04:14:04;;;;;;;17.02;10.10;;;;;;;-145.45;100.00;62759.84;5183735;28;20050;-86
2021/12/18 04:16:35;;;;;;;15.85;9.73;;;;;;;-145.45;100.00;62759.84;5183323;28;20086;-86
2021/12/18 04:19:07;;;;;;;19.52;10.35;;;;;;;-145.45;100.00;62759.84;5196955;28;20020;-86
2021/12/18 04:21:39;;;;;;;18.30;10.55;;;;;;;-145.45;100.00;62759.84;5200584;28;20042;-85
2021/12/18 04:24:10;;;;;;;17.00;10.45;;;;;;;-145.45;100.00;62759.84;5201578;28;20018;-86
2021/12/18 04:26:42;;;;;;;18.10;10.10;;;;;;;-145.45;100.00;62759.84;5199098;28;20393;-85
2021/12/18 04:29:13;;;;;;;15.90;9.73;;;;;;;-145.45;100.00;62759.84;5194965;28;20417;-86
2021/12/18 04:31:44;;;;;;;20.00;10.02;;;;;;;-145.45;100.00;62759.84;5201442;28;20033;-85
2021/12/18 04:34:15;;;;;;;20.98;10.82;;;;;;;-145.45;100.00;62759.84;5197243;28;20019;-86
2021/12/18 04:36:47;;;;;;;17.60;9.70;;;;;;;-145.45;100.00;62759.84;5197936;28;20067;-85
2021/12/18 04:39:18;;;;;;;17.77;9.57;;;;;;;-145.45;100.00;62759.84;5200947;28;20023;-85
2021/12/18 04:41:57;;;;;;;17.17;8.88;;;;;;;-145.45;100.00;62759.84;5196265;28;20039;-86
2021/12/18 04:44:28;;;;;;;17.65;9.38;;;;;;;-145.45;100.00;62759.84;5177610;28;20019;-85
2021/12/18 04:46:59;;;;;;;16.33;8.38;;;;;;;-145.45;100.00;62759.84;5199029;28;20539;-86
2021/12/18 04:49:30;;;;;;;16.17;9.20;;;;;;;-145.45;100.00;62759.84;5198562;28;20039;-86
2021/12/18 04:52:02;;;;;;;20.05;10.85;;;;;;;-145.45;100.00;62759.84;5212266;28;20047;-86
2021/12/18 04:54:33;;;;;;;18.98;10.43;;;;;;;-145.45;100.00;62759.84;5203395;28;20038;-86
2021/12/18 04:57:05;;;;;;;21.67;11.00;;;;;;;-145.45;100.00;62759.84;5201507;28;20113;-86
2021/12/18 04:59:42;;;;;;;17.95;10.07;;;;;;;-145.45;100.00;62759.84;5198102;28;20045;-86
2021/12/18 05:02:18;;;;;;;18.67;10.57;;;;;;;-145.45;100.00;62759.84;5179998;28;20116;-85
2021/12/18 05:04:51;;;;;;;17.48;9.68;;;;;;;-145.45;100.00;62759.84;5214848;28;20128;-86
2021/12/18 05:07:22;;;;;;;18.17;10.07;;;;;;;-145.45;100.00;62759.84;5213872;28;20035;-85
2021/12/18 05:09:53;;;;;;;20.27;9.98;;;;;;;-145.45;100.00;62759.84;5217052;28;20439;-86
2021/12/18 05:12:25;;;;;;;18.25;10.23;;;;;;;-145.45;100.00;62759.84;5206223;28;20407;-85
2021/12/18 05:14:56;;;;;;;18.42;9.93;;;;;;;-145.45;100.00;62759.84;5225189;28;20026;-85
2021/12/18 05:17:28;;;;;;;17.13;10.50;;;;;;;-145.45;100.00;62759.84;5221666;28;20030;-85
2021/12/18 05:19:59;;;;;;;17.55;9.63;;;;;;;-145.45;100.00;62759.84;5230023;28;20365;-85
2021/12/18 05:22:31;;;;;;;18.35;10.10;;;;;;;-145.45;100.00;62759.84;5227158;28;20395;-86
2021/12/18 05:25:03;;;;;;;16.23;8.52;;;;;;;-145.45;100.00;62759.84;5213431;28;20026;-85
2021/12/18 05:27:36;;;;;;;21.58;10.93;;;;;;;-145.45;100.00;62759.84;5231341;28;20355;-85
2021/12/18 05:30:09;;;;;;;23.42;11.10;;;;;;;-145.45;100.00;62759.84;5221812;28;20030;-85
2021/12/18 05:32:41;;;;;;;20.73;10.77;;;;;;;-145.45;100.00;62759.84;5231155;28;20034;-85
2021/12/18 05:35:15;;;;;;;21.13;11.13;;;;;;;-145.45;100.00;62759.84;5212358;28;20043;-85
2021/12/18 05:37:52;;;;;;;23.05;11.75;;;;;;;-145.45;100.00;62759.84;5232183;28;20088;-86
2021/12/18 05:40:24;;;;;;;19.70;9.93;;;;;;;-145.45;100.00;62759.84;5233095;28;20056;-85
2021/12/18 05:42:56;;;;;;;20.77;10.50;;;;;;;-145.45;100.00;62759.84;5233202;28;20026;-86
2021/12/18 05:45:27;;;;;;;25.80;11.55;;;;;;;-145.45;100.00;62759.84;5212288;28;20478;-86
2021/12/18 05:47:59;;;;;;;24.35;11.30;;;;;;;-145.45;100.00;62759.84;5230052;28;20510;-85
2021/12/18 05:50:31;;;;;;;25.92;11.75;;;;;;;-145.45;100.00;62759.84;5207986;28;20038;-86
2021/12/18 05:53:03;;;;;;;31.55;12.88;;;;;;;-145.45;100.00;62759.84;5212209;28;20498;-86
2021/12/18 05:55:34;;;;;;;33.92;12.82;;;;;;;-145.45;100.00;62759.84;5220188;28;20057;-85
2021/12/18 05:58:06;;;;;;;30.92;13.25;;;;;;;-145.45;100.00;62759.84;5220647;28;20061;-85
2021/12/18 06:00:39;;;;;;;27.63;12.38;;;;;;;-145.45;100.00;62759.84;5219862;28;20451;-85
2021/12/18 06:03:10;;;;;;;27.30;13.38;;;;;;;-145.45;100.00;62759.84;5223010;28;20119;-86
2021/12/18 06:05:42;;;;;;;24.15;11.60;;;;;;;-145.45;100.00;62759.84;5207847;28;20458;-85
2021/12/18 06:08:14;;;;;;;27.63;11.82;;;;;;;-145.45;100.00;62759.84;5220976;28;20027;-86
2021/12/18 06:10:45;;;;;;;27.88;12.27;;;;;;;-145.45;100.00;62759.84;5200115;28;20062;-85
2021/12/18 06:13:16;;;;;;;29.40;12.88;;;;;;;-145.45;100.00;62759.84;5219353;28;20554;-86
2021/12/18 06:15:48;;;;;;;29.13;13.27;;;;;;;-145.45;100.00;62759.84;5200858;28;20030;-86
2021/12/18 06:18:19;;;;;;;25.15;12.73;;;;;;;-145.45;100.00;62759.84;5216556;28;20038;-86
2021/12/18 06:20:50;;;;;;;26.75;12.32;;;;;;;-145.45;100.00;62759.84;5218234;28;20045;-85
2021/12/18 06:23:21;;;;;;;22.98;10.98;;;;;;;-145.45;100.00;62759.84;5196984;28;20047;-85
2021/12/18 06:25:53;;;;;;;26.40;11.88;;;;;;;-145.45;100.00;62759.84;5195403;28;20018;-86
2021/12/18 06:28:24;;;;;;;26.25;11.30;;;;;;;-145.45;100.00;62759.84;5223533;28;20498;-85
2021/12/18 06:30:55;;;;;;;26.15;11.82;;;;;;;-145.45;100.00;62759.84;5223174;28;20491;-86
2021/12/18 06:33:28;;;;;;;26.60;11.02;;;;;;;-145.45;100.00;62759.84;5212309;28;20026;-86
2021/12/18 06:36:00;;;;;;;25.42;11.00;;;;;;;-145.45;100.00;62759.84;5225709;28;20041;-85
2021/12/18 06:38:31;;;;;;;30.48;12.20;;;;;;;-145.45;100.00;62759.84;5222349;28;20022;-85
2021/12/18 06:41:02;;;;;;;28.67;11.43;;;;;;;-145.45;100.00;62759.84;5224460;28;20033;-85
2021/12/18 06:43:34;;;;;;;28.52;11.85;;;;;;;-145.45;100.00;62759.84;5215911;28;20035;-86
2021/12/18 06:46:06;;;;;;;27.75;11.18;;;;;;;-145.45;100.00;62759.84;5213705;28;20081;-86
2021/12/18 06:48:37;;;;;;;24.92;11.02;;;;;;;-145.45;100.00;62759.84;5217928;28;20253;-86
2021/12/18 06:51:08;;;;;;;29.95;11.63;;;;;;;-145.45;100.00;62759.84;5222670;28;20528;-86
2021/12/18 06:53:40;;;;;;;30.30;11.85;;;;;;;-145.45;100.00;62759.84;5207083;28;20033;-86
2021/12/18 06:56:11;;;;;;;26.92;10.48;;;;;;;-145.45;100.00;62759.84;5221991;28;20023;-86
2021/12/18 06:58:42;;;;;;;27.17;10.68;;;;;;;-145.45;100.00;62759.84;5220559;28;20031;-86
2021/12/18 07:01:14;;;;;;;26.40;11.02;;;;;;;-145.45;100.00;62759.84;5221574;28;20537;-86
2021/12/18 07:03:45;;;;;;;27.80;11.15;;;;;;;-145.45;100.00;62759.84;5207335;28;20054;-87
2021/12/18 07:06:17;;;;;;;26.30;10.40;;;;;;;-145.45;100.00;62759.84;5223290;28;20034;-86
2021/12/18 07:08:48;;;;;;;24.00;9.70;;;;;;;-145.45;100.00;62759.84;5223638;28;20034;-86
2021/12/18 07:11:19;;;;;;;25.17;11.02;;;;;;;-145.45;100.00;62759.84;5205424;28;20030;-86
2021/12/18 07:13:51;;;;;;;22.50;10.25;;;;;;;-145.45;100.00;62759.84;5224339;28;20030;-85
2021/12/18 07:16:23;;;;;;;21.98;9.27;;;;;;;-145.45;100.00;62759.84;5226895;28;20337;-85
2021/12/18 07:18:54;;;;;;;23.80;10.07;;;;;;;-145.45;100.00;62759.84;5231055;28;20068;-85
2021/12/18 07:21:25;;;;;;;24.17;10.52;;;;;;;-145.45;100.00;62759.84;5227754;28;20018;-86
2021/12/18 07:23:57;;;;;;;25.17;11.18;;;;;;;-145.45;100.00;62759.84;5224190;28;20569;-87
2021/12/18 07:26:29;;;;;;;30.23;13.60;;;;;;;-145.45;100.00;62759.84;5222184;28;29692;-86
2021/12/18 07:29:01;;;;;;;23.55;10.32;;;;;;;-145.45;100.00;62759.84;5223241;28;20192;-85
2021/12/18 07:31:32;;;;;;;21.48;9.23;;;;;;;-145.45;100.00;62759.84;5221850;28;20485;-85
2021/12/18 07:34:03;;;;;;;18.52;7.97;;;;;;;-145.45;100.00;62759.84;5222768;28;20018;-86
2021/12/18 07:36:35;;;;;;;20.83;8.68;;;;;;;-145.45;100.00;62759.84;5221527;28;20080;-86
2021/12/18 07:39:06;;;;;;;22.77;9.60;;;;;;;-145.45;100.00;62759.84;5228345;28;20030;-85
2021/12/18 07:41:38;;;;;;;23.90;10.15;;;;;;;-145.45;100.00;62759.84;5232683;28;20097;-85
2021/12/18 07:44:10;;;;;;;26.65;9.73;;;;;;;-145.45;100.00;62759.84;5212412;28;20035;-86
2021/12/18 07:46:41;;;;;;;25.90;9.18;;;;;;;-145.45;100.00;62759.84;5218201;28;20021;-86
2021/12/18 07:49:12;;;;;;;28.08;9.60;;;;;;;-145.45;100.00;62759.84;5221330;28;20437;-87
2021/12/18 07:51:44;;;;;;;25.60;10.30;;;;;;;-145.45;100.00;62759.84;5242457;28;20094;-87
2021/12/18 07:54:15;;;;;;;23.48;8.88;;;;;;;-145.45;100.00;62759.84;5231473;28;20434;-87
2021/12/18 07:56:46;;;;;;;27.38;10.07;;;;;;;-145.45;100.00;62759.84;5224869;28;20115;-87
2021/12/18 07:59:18;;;;;;;24.80;10.05;;;;;;;-145.45;100.00;62759.84;5224471;28;20022;-86
2021/12/18 08:01:49;;;;;;;23.58;8.85;;;;;;;-145.45;100.00;62759.84;5206914;28;20085;-87
2021/12/18 08:04:20;;;;;;;22.20;8.95;;;;;;;-145.45;100.00;62759.84;5191883;28;20459;-86
2021/12/18 08:06:52;;;;;;;23.85;8.85;;;;;;;-145.45;100.00;62759.84;5202162;28;20042;-86
2021/12/18 08:09:24;;;;;;;22.67;7.78;;;;;;;-145.45;100.00;62759.84;5203730;28;42207;-87
2021/12/18 08:11:55;;;;;;;24.83;8.95;;;;;;;-145.45;100.00;62759.84;5200827;28;20027;-87
2021/12/18 08:14:26;;;;;;;26.73;9.10;;;;;;;-145.45;100.00;62759.84;5204105;28;20027;-87
2021/12/18 08:16:57;;;;;;;21.80;8.55;;;;;;;-145.45;100.00;62759.84;5204789;28;20144;-87
2021/12/18 08:19:29;;;;;;;23.40;8.98;;;;;;;-145.45;100.00;62759.84;5207225;28;20391;-87
2021/12/18 08:22:00;;;;;;;22.05;8.27;;;;;;;-145.45;100.00;62759.84;5196486;28;20051;-86
2021/12/18 08:24:32;;;;;;;22.63;8.52;;;;;;;-145.45;100.00;62759.84;5200279;28;20023;-86
2021/12/18 08:27:03;;;;;;;22.10;7.82;;;;;;;-145.45;100.00;62759.84;5203463;28;20646;-86
2021/12/18 08:29:37;;;;;;;21.10;7.38;;;;;;;-145.45;100.00;62759.84;5202476;28;20027;-86
2021/12/18 08:32:09;;;;;;;17.13;6.10;;;;;;;-145.45;100.00;62759.84;5194232;28;20050;-87
2021/12/18 08:34:40;;;;;;;16.30;6.70;;;;;;;-145.45;100.00;62759.84;5183560;28;20113;-86
2021/12/18 08:37:11;;;;;;;15.68;6.45;;;;;;;-145.45;100.00;62759.84;5182673;28;20480;-87
2021/12/18 08:39:43;;;;;;;15.30;5.95;;;;;;;-145.45;100.00;62759.84;5200802;28;20026;-87
2021/12/18 08:42:14;;;;;;;16.98;6.25;;;;;;;-145.45;100.00;62759.84;5200691;28;20026;-87
2021/12/18 08:44:46;;;;;;;16.00;5.75;;;;;;;-145.45;100.00;62759.84;5200119;28;20030;-87
2021/12/18 08:47:18;;;;;;;11.88;4.28;;;;;;;-145.45;100.00;62759.84;5201234;28;20113;-87
2021/12/18 08:49:49;;;;;;;17.92;6.72;;;;;;;-145.45;100.00;62759.84;5182058;28;20054;-87
2021/12/18 08:52:21;;;;;;;14.20;5.75;;;;;;;-145.45;100.00;62759.84;5201711;28;20388;-87
2021/12/18 08:54:52;;;;;;;14.77;6.18;;;;;;;-145.45;100.00;62759.84;5200505;28;20483;-87
2021/12/18 08:57:24;;;;;;;16.02;5.82;;;;;;;-145.45;100.00;62759.84;5200061;28;20336;-86
2021/12/18 08:59:55;;;;;;;18.10;7.13;;;;;;;-145.45;100.00;62759.84;5201804;28;20584;-87
2021/12/18 09:02:26;;;;;;;14.55;6.22;;;;;;;-145.45;100.00;62759.84;5200948;28;20340;-86
2021/12/18 09:04:58;;;;;;;15.27;5.85;;;;;;;-145.45;100.00;62759.84;5219429;28;20046;-87
2021/12/18 09:07:29;;;;;;;13.30;5.43;;;;;;;-145.45;100.00;62759.84;5221465;28;20027;-87
2021/12/18 09:10:01;;;;;;;15.45;5.70;;;;;;;-145.45;100.00;62759.84;5203399;28;20068;-86
2021/12/18 09:12:32;;;;;;;14.63;5.78;;;;;;;-145.45;100.00;62759.84;5201546;28;20065;-87
2021/12/18 09:15:04;;;;;;;11.40;5.22;;;;;;;-145.45;100.00;62759.84;5222155;28;20022;-86
2021/12/18 09:17:35;;;;;;;10.20;4.75;;;;;;;-145.45;100.00;62759.84;5202707;28;20030;-86
2021/12/18 09:20:07;;;;;;;11.73;4.93;;;;;;;-145.45;100.00;62759.84;5221085;28;20102;-87
2021/12/18 09:22:39;;;;;;;12.20;5.47;;;;;;;-145.45;100.00;62759.84;5221717;28;20053;-87
2021/12/18 09:25:11;;;;;;;12.02;5.45;;;;;;;-145.45;100.00;62759.84;5214828;28;20030;-86
2021/12/18 09:27:42;;;;;;;11.48;5.32;;;;;;;-145.45;100.00;62759.84;5227238;28;20121;-86
2021/12/18 09:30:15;;;;;;;11.02;5.35;;;;;;;-145.45;100.00;62759.84;5227426;28;20038;-87
2021/12/18 09:32:46;;;;;;;12.82;5.22;;;;;;;-145.45;100.00;62759.84;5208895;28;20015;-87
2021/12/18 09:35:18;;;;;;;11.48;5.82;;;;;;;-145.45;100.00;62759.84;5241714;28;20061;-86
2021/12/18 09:37:49;;;;;;;12.45;5.68;;;;;;;-145.45;100.00;62759.84;5246558;28;20056;-86
2021/12/18 09:40:20;;;;;;;12.60;5.90;;;;;;;-145.45;100.00;62759.84;5238343;28;20065;-86
2021/12/18 09:42:52;;;;;;;12.63;5.38;;;;;;;-145.45;100.00;62759.84;5231141;28;20050;-86
2021/12/18 09:45:24;;;;;;;14.50;5.40;;;;;;;-145.45;100.00;62759.84;5225265;28;20033;-86
2021/12/18 09:47:56;;;;;;;9.88;5.25;;;;;;;-145.45;100.00;62759.84;5203558;28;20030;-87
2021/12/18 09:50:28;;;;;;;9.95;5.38;;;;;;;-145.45;100.00;62759.84;5202883;28;20280;-86
2021/12/18 09:52:59;;;;;;;10.77;5.28;;;;;;;-145.45;100.00;62759.84;5220934;28;20034;-87
2021/12/18 09:55:31;;;;;;;12.30;5.43;;;;;;;-145.45;100.00;62759.84;5219645;28;20022;-86
2021/12/18 09:58:02;;;;;;;10.38;4.82;;;;;;;-145.45;100.00;62759.84;5201716;28;20037;-87
2021/12/18 10:00:34;;;;;;;11.23;5.72;;;;;;;-145.45;100.00;62759.84;5215686;28;20053;-87
2021/12/18 10:03:07;;;;;;;13.25;5.38;;;;;;;-145.45;100.00;62759.84;5220499;28;20040;-87
2021/12/18 10:05:38;;;;;;;8.85;4.90;;;;;;;-145.45;100.00;62759.84;5219345;28;20488;-87
2021/12/18 10:08:18;;;;;;;9.73;5.13;;;;;;;-145.45;100.00;62759.84;5220820;28;20025;-87
2021/12/18 10:11:01;;;;;;;8.40;4.30;;;;;;;-145.45;100.00;62759.84;5220632;28;20498;-86
2021/12/18 10:13:56;;;;;;;8.05;3.92;;;;;;;-145.45;100.00;62759.84;5182486;28;20385;-86
2021/12/18 10:16:28;;;;;;;8.73;4.53;;;;;;;-145.45;100.00;62759.84;5200091;28;20026;-86
2021/12/18 10:19:00;;;;;;;10.20;5.60;;;;;;;-145.45;100.00;62759.84;5211696;28;20092;-87
2021/12/18 10:21:31;;;;;;;10.00;4.82;;;;;;;-145.45;100.00;62759.84;5220342;28;20023;-86
2021/12/18 10:24:14;;;;;;;10.40;5.32;;;;;;;-145.45;100.00;62759.84;5216274;28;20045;-87
2021/12/18 10:26:45;;;;;;;9.13;4.75;;;;;;;-145.45;100.00;62759.84;5218136;28;20162;-87
2021/12/18 10:29:26;;;;;;;8.75;4.32;;;;;;;-145.45;100.00;62759.84;5193930;28;20106;-87
2021/12/18 10:32:19;;;;;;;9.93;4.85;;;;;;;-145.45;100.00;62759.84;5202720;28;20034;-87
2021/12/18 10:34:53;;;;;;;14.70;8.77;;;;;;;-145.45;100.00;62759.84;5220169;28;20038;-86
2021/12/18 10:37:25;;;;;;;14.88;9.25;;;;;;;-145.45;100.00;62759.84;5220600;28;20029;-86
2021/12/18 10:40:02;;;;;;;8.68;4.93;;;;;;;-145.45;100.00;62759.84;5220494;28;20026;-87
2021/12/18 10:42:35;;;;;;;;;;;;;;;-145.45;100.00;62759.84;5220385;28;20057;-87
2021/12/18 10:45:12;;;;;;;6.78;3.75;;;;;;;-145.45;100.00;62759.84;5212787;28;19909;-87
2021/12/18 10:48:01;;;;;;;7.63;4.80;;;;;;;-145.45;100.00;62759.84;5220392;28;20110;-87
2021/12/18 10:50:50;;;;;;;7.38;3.65;;;;;;;-145.45;100.00;62759.84;5201884;28;20058;-87
2021/12/18 10:53:24;;;;;;;5.85;3.03;;;;;;;-145.45;100.00;62759.84;5219897;28;20026;-86
2021/12/18 10:55:58;;;;;;;5.15;3.05;;;;;;;-145.45;100.00;62759.84;5220405;28;20110;-87
2021/12/18 10:58:39;;;;;;;6.15;3.17;;;;;;;-145.45;100.00;62759.84;5206985;28;20022;-86
2021/12/18 11:01:13;;;;;;;4.90;2.55;;;;;;;-145.45;100.00;62759.84;5225831;28;20035;-87
2021/12/18 11:03:50;;;;;;;3.72;2.55;;;;;;;-145.45;100.00;62759.84;5219018;28;20526;-86
2021/12/18 11:06:32;;;;;;;5.03;2.55;;;;;;;-145.45;100.00;62759.84;5219551;28;20023;-86
2021/12/18 11:09:10;;;;;;;5.03;2.63;;;;;;;-145.45;100.00;62759.84;5219882;28;20026;-86
2021/12/18 11:14:19;;;;;;;3.47;2.30;;;;;;;-145.45;100.00;62759.84;5202377;28;20038;-87
2021/12/18 11:16:59;;;;;;;3.53;2.45;;;;;;;-145.45;100.00;62759.84;5213624;28;20026;-86
2021/12/18 11:19:32;;;;;;;3.92;2.70;;;;;;;-145.45;100.00;62759.84;5223520;28;20026;-87
2021/12/18 11:22:06;;;;;;;4.97;3.30;;;;;;;-145.45;100.00;62759.84;5223884;28;20073;-86
2021/12/18 11:24:42;;;;;;;5.43;3.17;;;;;;;-145.45;100.00;62759.84;5222904;28;20081;-86
2021/12/18 11:27:20;;;;;;;6.10;3.55;;;;;;;-145.45;100.00;62759.84;5223228;28;20082;-86
2021/12/18 11:30:06;;;;;;;5.85;4.05;;;;;;;-145.45;100.00;62759.84;5222872;28;20034;-86
2021/12/18 11:32:41;;;;;;;6.22;3.58;;;;;;;-145.45;100.00;62759.84;5204710;28;20022;-86
2021/12/18 11:35:19;;;;;;;5.28;4.03;;;;;;;-145.45;100.00;62759.84;5204804;28;20027;-87
2021/12/18 11:37:55;;;;;;;8.35;4.78;;;;;;;-145.45;100.00;62759.84;5229125;28;20058;-86
2021/12/18 11:40:35;;;;;;;6.05;4.40;;;;;;;-145.45;100.00;62759.84;5228863;28;20023;-86
2021/12/18 11:43:41;;;;;;;7.78;4.60;;;;;;;-145.45;100.00;62759.84;5228481;28;20086;-86
2021/12/18 11:46:33;;;;;;;10.40;5.40;;;;;;;-145.45;100.00;62759.84;5223519;28;20028;-87
2021/12/18 11:49:07;;;;;;;7.65;5.03;;;;;;;-145.45;100.00;62759.84;5203332;28;20038;-86
2021/12/18 11:51:38;;;;;;;8.30;5.32;;;;;;;-145.45;100.00;62759.84;5202220;28;20038;-86
2021/12/18 11:54:45;;;;;;;7.28;5.28;;;;;;;-145.45;100.00;62759.84;5222928;28;20022;-86
2021/12/18 11:57:37;;;;;;;7.97;4.60;;;;;;;-145.45;100.00;62759.84;5213058;28;20058;-87
2021/12/18 12:00:17;;;;;;;7.15;4.63;;;;;;;-145.45;100.00;62759.84;5220869;28;20022;-86
2021/12/18 12:02:53;;;;;;;6.82;4.22;;;;;;;-145.45;100.00;62759.84;5205875;28;22491;-86
2021/12/18 12:05:44;;;;;;;7.82;3.85;;;;;;;-145.45;100.00;62759.84;5221318;28;20053;-86
2021/12/18 12:08:34;;;;;;;5.68;3.55;;;;;;;-145.45;100.00;62759.84;5216959;28;20030;-86